Time;durP1;ratioP1;P1;durP2;ratioP2;P2;SDS_P1;SDS_P2;PMS_P1;PMS_P2;Temp;Humidity;BMP_temperature;BMP_pressure;BME280_temperature;BME280_humidity;BME280_pressure;Samples;Min_cycle;Max_cycle;Signal;HPM_P1;HPM_P2
2021/11/22 00:06:02;;;;;;;;;;;8.60;85.00;;;;;;20902223;28;77017;-71
2021/11/22 00:16:04;;;;;;;;;;;8.40;84.90;;;;;;20893631;27;76952;-72
2021/11/22 00:26:07;;;;;;;;;;;8.30;85.00;;;;;;20913948;28;76004;-72
2021/11/22 00:36:08;;;;;;;;;;;8.20;85.20;;;;;;20917771;27;75707;-71
2021/11/22 00:46:11;;;;;;;;;;;8.00;85.30;;;;;;20927158;27;75841;-72
2021/11/22 00:56:16;;;;;;;;;;;7.90;85.30;;;;;;20894560;28;77252;-72
2021/11/22 01:06:17;;;;;;;;;;;7.90;85.60;;;;;;20909662;28;75716;-73
2021/11/22 01:16:19;;;;;;;;;;;7.80;85.90;;;;;;20911133;28;75749;-72
2021/11/22 01:26:20;;;;;;;;;;;7.60;85.90;;;;;;20911994;27;76694;-71
2021/11/22 01:36:22;;;;;;;;;;;7.60;86.30;;;;;;20910982;28;76808;-75
2021/11/22 01:46:23;;;;;;;;;;;7.80;86.80;;;;;;20910129;28;76016;-74
2021/11/22 01:56:24;;;;;;;;;;;8.00;86.80;;;;;;20923282;27;76905;-71
2021/11/22 02:06:27;;;;;;;;;;;8.20;86.90;;;;;;20907833;28;75699;-72
2021/11/22 02:16:32;;;;;;;;;;;8.40;86.70;;;;;;20890447;28;76724;-71
2021/11/22 02:26:36;;;;;;;;;;;8.50;86.60;;;;;;20906952;28;75813;-72
2021/11/22 02:36:38;;;;;;;;;;;8.60;86.30;;;;;;20906447;28;76051;-72
2021/11/22 02:46:43;;;;;;;;;;;8.60;86.00;;;;;;20889092;28;74718;-73
2021/11/22 02:56:49;;;;;;;;;;;8.60;85.90;;;;;;20905672;28;76108;-73
2021/11/22 03:06:57;;;;;;;;;;;8.70;85.90;;;;;;20904064;28;75562;-73
2021/11/22 03:17:11;;;;;;;;;;;8.80;85.90;;;;;;20888974;28;77334;-75
2021/11/22 03:27:19;;;;;;;;;;;8.80;85.60;;;;;;20887601;28;76938;-72
2021/11/22 03:37:25;;;;;;;;;;;8.80;85.10;;;;;;20903841;28;75868;-72
2021/11/22 03:47:31;;;;;;;;;;;8.80;84.80;;;;;;20908010;27;75555;-74
2021/11/22 03:57:35;;;;;;;;;;;8.80;84.60;;;;;;20949930;27;74848;-72
2021/11/22 04:07:45;;;;;;;;;;;8.80;84.60;;;;;;20945584;27;75735;-70
2021/11/22 04:17:51;;;;;;;;;;;8.90;84.40;;;;;;20898154;28;75426;-71
2021/11/22 04:28:14;;;;;;;;;;;8.80;84.30;;;;;;20916634;28;77258;-71
2021/11/22 04:38:36;;;;;;;;;;;8.80;84.60;;;;;;20913632;28;77776;-71
2021/11/22 04:48:57;;;;;;;;;;;8.70;85.00;;;;;;20912662;28;75254;-71
2021/11/22 04:59:15;;;;;;;;;;;8.80;84.90;;;;;;20888948;27;74869;-74
2021/11/22 05:09:25;;;;;;;;;;;8.70;84.70;;;;;;20890655;28;75928;-72
2021/11/22 05:19:32;;;;;;;;;;;8.80;84.60;;;;;;20913421;28;76769;-70
2021/11/22 05:29:40;;;;;;;;;;;8.90;84.90;;;;;;20931017;27;76806;-70
2021/11/22 05:39:48;;;;;;;;;;;8.70;84.60;;;;;;20959693;27;76063;-71
2021/11/22 05:49:56;;;;;;;;;;;8.60;84.80;;;;;;20892703;28;75994;-74
2021/11/22 05:59:59;;;;;;;;;;;8.60;84.90;;;;;;20893301;27;75953;-71
2021/11/22 06:10:03;;;;;;;;;;;8.70;84.90;;;;;;20931783;27;74889;-72
2021/11/22 06:20:08;;;;;;;;;;;8.80;84.90;;;;;;20955379;27;76043;-72
2021/11/22 06:30:10;;;;;;;;;;;8.70;85.10;;;;;;20992608;27;76946;-71
2021/11/22 06:40:12;;;;;;;;;;;8.90;85.10;;;;;;20948227;27;76853;-72
2021/11/22 06:50:23;;;;;;;;;;;9.00;84.80;;;;;;20902062;27;75849;-72
2021/11/22 07:00:25;;;;;;;;;;;9.10;84.70;;;;;;20973206;27;76634;-72
2021/11/22 07:10:27;;;;;;;;;;;9.20;84.50;;;;;;20957813;27;75768;-68
2021/11/22 07:20:31;;;;;;;;;;;9.20;84.50;;;;;;20938240;27;76922;-66
2021/11/22 07:30:33;;;;;;;;;;;9.30;84.90;;;;;;20989506;27;75510;-64
2021/11/22 07:40:36;;;;;;;;;;;9.30;85.00;;;;;;20977887;27;76459;-70
2021/11/22 07:50:38;;;;;;;;;;;9.30;85.00;;;;;;20975680;27;75706;-68
2021/11/22 08:00:41;;;;;;;;;;;9.40;85.20;;;;;;20967858;27;76805;-66
2021/11/22 08:10:47;;;;;;;;;;;9.70;85.30;;;;;;20987428;27;76712;-66
2021/11/22 08:20:51;;;;;;;;;;;9.90;84.60;;;;;;20983478;27;76331;-66
2021/11/22 08:30:53;;;;;;;;;;;10.00;84.00;;;;;;20927537;27;75736;-67
2021/11/22 08:40:57;;;;;;;;;;;10.10;83.70;;;;;;20985576;27;76421;-68
2021/11/22 08:51:02;;;;;;;;;;;10.10;83.70;;;;;;20987906;27;76943;-66
2021/11/22 09:01:06;;;;;;;;;;;10.60;83.80;;;;;;20960700;27;76953;-67
2021/11/22 09:11:09;;;;;;;;;;;11.10;82.00;;;;;;20968131;27;75915;-68
2021/11/22 09:21:11;;;;;;;;;;;11.40;80.60;;;;;;20965900;27;75779;-68
2021/11/22 09:31:15;;;;;;;;;;;11.10;81.00;;;;;;20972657;27;76858;-67
2021/11/22 09:41:19;;;;;;;;;;;11.40;80.50;;;;;;20944940;27;76858;-68
2021/11/22 09:51:21;;;;;;;;;;;12.40;79.00;;;;;;20963235;27;75816;-68
2021/11/22 10:01:25;;;;;;;;;;;12.10;76.60;;;;;;20980459;27;75725;-67
2021/11/22 10:11:28;;;;;;;;;;;11.40;78.60;;;;;;20945807;27;77013;-68
2021/11/22 10:21:36;;;;;;;;;;;11.30;79.80;;;;;;20928889;27;76866;-67
2021/11/22 10:31:38;;;;;;;;;;;11.50;79.30;;;;;;20928393;27;76834;-68
2021/11/22 10:41:40;;;;;;;;;;;11.90;78.50;;;;;;20953392;27;75764;-68
2021/11/22 10:51:47;;;;;;;;;;;14.40;72.00;;;;;;20927093;27;75593;-67
2021/11/22 11:01:55;;;;;;;;;;;16.10;65.30;;;;;;20938686;27;76521;-68
2021/11/22 11:12:05;;;;;;;;;;;15.60;63.10;;;;;;20918738;27;95400;-68
2021/11/22 11:22:07;;;;;;;;;;;14.90;63.00;;;;;;20951589;27;76995;-67
2021/11/22 11:32:09;;;;;;;;;;;14.40;66.00;;;;;;20937701;27;75941;-65
2021/11/22 11:42:14;;;;;;;;;;;20.30;52.50;;;;;;20916852;27;76758;-67
2021/11/22 11:52:28;;;;;;;;;;;25.70;40.70;;;;;;20938027;27;76756;-67
2021/11/22 12:02:30;;;;;;;;;;;25.50;40.10;;;;;;20974435;27;76690;-67
2021/11/22 12:12:38;;;;;;;;;;;27.40;35.90;;;;;;20986446;27;76064;-69
2021/11/22 12:22:42;;;;;;;;;;;25.90;38.10;;;;;;20971054;27;74940;-69
2021/11/22 12:32:44;;;;;;;;;;;27.10;33.40;;;;;;20962145;27;76021;-69
2021/11/22 12:42:52;;;;;;;;;;;20.60;43.70;;;;;;20976015;27;76776;-69
2021/11/22 12:53:16;;;;;;;;;;;16.90;51.90;;;;;;20952882;27;75223;-69
2021/11/22 13:03:19;;;;;;;;;;;15.30;57.30;;;;;;20974660;27;76555;-68
2021/11/22 13:13:30;;;;;;;;;;;14.00;60.60;;;;;;20961755;27;76940;-66
2021/11/22 13:23:39;;;;;;;;;;;13.50;62.50;;;;;;20986514;27;76488;-64
2021/11/22 13:33:42;;;;;;;;;;;13.70;62.00;;;;;;20959989;27;75604;-70
2021/11/22 13:43:50;;;;;;;;;;;16.90;51.40;;;;;;20941995;27;77025;-66
2021/11/22 13:54:03;;;;;;;;;;;15.50;56.40;;;;;;20936356;27;75933;-65
2021/11/22 14:04:05;;;;;;;;;;;13.90;60.20;;;;;;20947828;27;76932;-64
2021/11/22 14:14:18;;;;;;;;;;;13.20;62.00;;;;;;20940758;27;76457;-68
2021/11/22 14:24:23;;;;;;;;;;;12.40;65.20;;;;;;20917105;27;75818;-67
2021/11/22 14:34:26;;;;;;;;;;;11.40;70.70;;;;;;20961835;27;76609;-65
2021/11/22 14:44:28;;;;;;;;;;;10.90;72.20;;;;;;20976302;27;75089;-66
2021/11/22 14:54:34;;;;;;;;;;;10.70;76.60;;;;;;20979853;27;75869;-64
2021/11/22 15:04:37;;;;;;;;;;;10.70;74.80;;;;;;20977047;27;76052;-66
2021/11/22 15:14:40;;;;;;;;;;;10.40;75.60;;;;;;20970439;27;76658;-66
2021/11/22 15:24:45;;;;;;;;;;;10.30;75.60;;;;;;20965200;27;76660;-66
2021/11/22 15:34:48;;;;;;;;;;;10.20;78.60;;;;;;20982501;27;75688;-66
2021/11/22 15:44:51;;;;;;;;;;;10.10;79.70;;;;;;20991140;27;76041;-66
2021/11/22 15:54:54;;;;;;;;;;;9.90;79.20;;;;;;20955267;27;75833;-64
2021/11/22 16:04:57;;;;;;;;;;;9.90;78.70;;;;;;20916412;28;75733;-66
2021/11/22 16:15:01;;;;;;;;;;;9.40;81.20;;;;;;20894723;28;75580;-67
2021/11/22 16:25:04;;;;;;;;;;;9.00;82.50;;;;;;20912971;28;74985;-65
2021/11/22 16:35:07;;;;;;;;;;;8.90;83.40;;;;;;20913001;28;77169;-68
2021/11/22 16:45:08;;;;;;;;;;;8.70;82.70;;;;;;20915469;27;75204;-70
2021/11/22 16:55:12;;;;;;;;;;;8.60;81.80;;;;;;20923519;27;75459;-67
2021/11/22 17:05:13;;;;;;;;;;;8.50;81.10;;;;;;20911821;28;76770;-66
2021/11/22 17:15:15;;;;;;;;;;;8.50;80.80;;;;;;20922240;27;75661;-70
2021/11/22 17:25:17;;;;;;;;;;;8.50;80.70;;;;;;20905565;27;75566;-69
2021/11/22 17:35:19;;;;;;;;;;;8.50;80.00;;;;;;20903078;28;76121;-71
2021/11/22 17:45:22;;;;;;;;;;;8.60;80.30;;;;;;20892447;28;75030;-69
2021/11/22 17:55:23;;;;;;;;;;;8.50;81.80;;;;;;20931434;27;75723;-72
2021/11/22 18:05:25;;;;;;;;;;;8.40;82.70;;;;;;20994794;27;77333;-71
2021/11/22 18:15:27;;;;;;;;;;;8.30;82.80;;;;;;20974966;27;75658;-73
2021/11/22 18:25:30;;;;;;;;;;;8.30;83.10;;;;;;20903010;27;75340;-70
2021/11/22 18:35:31;;;;;;;;;;;8.40;83.20;;;;;;20929540;27;75843;-70
2021/11/22 18:45:33;;;;;;;;;;;8.10;82.60;;;;;;20888616;28;76177;-69
2021/11/22 18:55:35;;;;;;;;;;;8.00;82.20;;;;;;20890522;27;74968;-69
2021/11/22 19:05:37;;;;;;;;;;;8.00;82.20;;;;;;20965568;27;76684;-71
2021/11/22 19:15:39;;;;;;;;;;;8.00;82.10;;;;;;20980794;27;75628;-70
2021/11/22 19:25:40;;;;;;;;;;;7.90;82.00;;;;;;20939955;27;76231;-71
2021/11/22 19:35:42;;;;;;;;;;;7.80;81.70;;;;;;20922772;27;75981;-71
2021/11/22 19:45:45;;;;;;;;;;;7.90;81.70;;;;;;20885945;28;75644;-70
2021/11/22 19:55:48;;;;;;;;;;;8.10;81.20;;;;;;20904229;28;76619;-73
2021/11/22 20:05:51;;;;;;;;;;;8.20;81.00;;;;;;20887060;28;75749;-72
2021/11/22 20:15:53;;;;;;;;;;;8.20;81.00;;;;;;20903107;28;77153;-74
2021/11/22 20:25:56;;;;;;;;;;;8.10;80.60;;;;;;20886640;27;74661;-75
2021/11/22 20:35:58;;;;;;;;;;;8.10;80.70;;;;;;20931052;27;75732;-69
2021/11/22 20:46:03;;;;;;;;;;;8.20;80.60;;;;;;20906384;28;75473;-75
2021/11/22 20:56:17;;;;;;;;;;;8.30;80.70;;;;;;20912805;27;76189;-72
2021/11/22 21:06:18;;;;;;;;;;;8.40;80.60;;;;;;20988800;27;75843;-77
2021/11/22 21:16:21;;;;;;;;;;;8.40;80.30;;;;;;20998538;27;76732;-75
2021/11/22 21:26:23;;;;;;;;;;;8.00;80.50;;;;;;20998242;27;75357;-81
2021/11/22 21:36:24;;;;;;;;;;;7.70;81.70;;;;;;20937739;27;75512;-75
2021/11/22 21:46:26;;;;;;;;;;;7.90;81.60;;;;;;20996168;27;76767;-71
2021/11/22 21:56:29;;;;;;;;;;;7.80;80.80;;;;;;20995723;27;76577;-76
2021/11/22 22:06:32;;;;;;;;;;;7.60;80.30;;;;;;20977125;27;76004;-73
2021/11/22 22:16:34;;;;;;;;;;;7.30;80.60;;;;;;20994415;27;76910;-73
2021/11/22 22:26:36;;;;;;;;;;;7.20;80.50;;;;;;20992849;27;76883;-75
2021/11/22 22:36:37;;;;;;;;;;;6.80;81.20;;;;;;20974756;27;76765;-73
2021/11/22 22:46:39;;;;;;;;;;;6.70;82.10;;;;;;20974355;27;75869;-72
2021/11/22 22:56:41;;;;;;;;;;;6.60;82.50;;;;;;20991160;27;75989;-70
2021/11/22 23:06:42;;;;;;;;;;;6.60;82.40;;;;;;20990736;27;75656;-71
2021/11/22 23:16:44;;;;;;;;;;;6.60;82.40;;;;;;20990295;27;75993;-75
2021/11/22 23:26:45;;;;;;;;;;;6.40;82.80;;;;;;20971687;27;75714;-73
2021/11/22 23:36:47;;;;;;;;;;;6.00;83.30;;;;;;20965216;27;76575;-73
2021/11/22 23:46:49;;;;;;;;;;;5.90;84.00;;;;;;20983793;27;76073;-76
2021/11/22 23:56:51;;;;;;;;;;;6.00;84.10;;;;;;20987166;27;76961;-73
